sensor_id;sensor_type;location;lat;lon;timestamp;pressure;altitude;pressure_sealevel;temperature;humidity
73101;BME280;61288;53.446;-2.266;2022-12-18T00:01:46;101722.03;;;0.05;95.53
73101;BME280;61288;53.446;-2.266;2022-12-18T00:04:21;101733.84;;;0.02;95.13
73101;BME280;61288;53.446;-2.266;2022-12-18T00:06:46;101736.44;;;0.03;94.73
73101;BME280;61288;53.446;-2.266;2022-12-18T00:09:12;101728.75;;;0.02;94.06
73101;BME280;61288;53.446;-2.266;2022-12-18T00:11:38;101734.66;;;0.01;94.45
73101;BME280;61288;53.446;-2.266;2022-12-18T00:14:03;101730.34;;;-0.02;94.13
73101;BME280;61288;53.446;-2.266;2022-12-18T00:16:29;101733.66;;;-0.06;95.47
73101;BME280;61288;53.446;-2.266;2022-12-18T00:18:59;101738.72;;;-0.09;95.25
73101;BME280;61288;53.446;-2.266;2022-12-18T00:21:26;101733.63;;;-0.09;94.35
73101;BME280;61288;53.446;-2.266;2022-12-18T00:23:52;101741.25;;;-0.11;93.92
73101;BME280;61288;53.446;-2.266;2022-12-18T00:26:24;101730.91;;;-0.17;94.81
73101;BME280;61288;53.446;-2.266;2022-12-18T00:28:50;101729.16;;;-0.20;94.15
73101;BME280;61288;53.446;-2.266;2022-12-18T00:31:18;101729.94;;;-0.24;93.69
73101;BME280;61288;53.446;-2.266;2022-12-18T00:33:45;101728.22;;;-0.23;92.01
73101;BME280;61288;53.446;-2.266;2022-12-18T00:36:16;101723.06;;;-0.28;92.98
73101;BME280;61288;53.446;-2.266;2022-12-18T00:38:43;101734.03;;;-0.32;92.59
73101;BME280;61288;53.446;-2.266;2022-12-18T00:41:09;101733.91;;;-0.37;92.71
73101;BME280;61288;53.446;-2.266;2022-12-18T00:43:36;101737.22;;;-0.41;93.15
73101;BME280;61288;53.446;-2.266;2022-12-18T00:46:03;101728.63;;;-0.46;93.19
73101;BME280;61288;53.446;-2.266;2022-12-18T00:48:29;101732.00;;;-0.47;92.66
73101;BME280;61288;53.446;-2.266;2022-12-18T00:50:54;101726.75;;;-0.53;93.20
73101;BME280;61288;53.446;-2.266;2022-12-18T00:53:20;101728.38;;;-0.57;92.39
73101;BME280;61288;53.446;-2.266;2022-12-18T00:55:46;101730.88;;;-0.59;92.67
73101;BME280;61288;53.446;-2.266;2022-12-18T00:58:13;101726.69;;;-0.56;90.69
73101;BME280;61288;53.446;-2.266;2022-12-18T01:00:41;101722.34;;;-0.61;91.08
73101;BME280;61288;53.446;-2.266;2022-12-18T01:03:07;101725.78;;;-0.60;91.16
73101;BME280;61288;53.446;-2.266;2022-12-18T01:05:33;101729.91;;;-0.65;91.70
73101;BME280;61288;53.446;-2.266;2022-12-18T01:07:59;101722.28;;;-0.65;90.12
73101;BME280;61288;53.446;-2.266;2022-12-18T01:10:26;101726.38;;;-0.70;91.03
73101;BME280;61288;53.446;-2.266;2022-12-18T01:12:52;101722.84;;;-0.77;92.10
73101;BME280;61288;53.446;-2.266;2022-12-18T01:15:18;101720.06;;;-0.87;92.97
73101;BME280;61288;53.446;-2.266;2022-12-18T01:17:44;101724.13;;;-0.95;93.41
73101;BME280;61288;53.446;-2.266;2022-12-18T01:20:11;101727.28;;;-1.04;94.27
73101;BME280;61288;53.446;-2.266;2022-12-18T01:22:37;101710.97;;;-1.13;95.48
73101;BME280;61288;53.446;-2.266;2022-12-18T01:25:03;101711.63;;;-1.21;95.81
73101;BME280;61288;53.446;-2.266;2022-12-18T01:27:29;101716.63;;;-1.25;95.07
73101;BME280;61288;53.446;-2.266;2022-12-18T01:29:55;101706.31;;;-1.32;95.37
73101;BME280;61288;53.446;-2.266;2022-12-18T01:32:21;101708.75;;;-1.35;94.68
73101;BME280;61288;53.446;-2.266;2022-12-18T01:34:47;101707.75;;;-1.41;95.57
73101;BME280;61288;53.446;-2.266;2022-12-18T01:37:13;101715.13;;;-1.51;96.19
73101;BME280;61288;53.446;-2.266;2022-12-18T01:39:39;101720.09;;;-1.55;96.47
73101;BME280;61288;53.446;-2.266;2022-12-18T01:42:11;101724.22;;;-1.59;95.88
73101;BME280;61288;53.446;-2.266;2022-12-18T01:45:03;101717.50;;;-1.57;94.09
73101;BME280;61288;53.446;-2.266;2022-12-18T01:52:32;101708.59;;;-1.75;95.53
73101;BME280;61288;53.446;-2.266;2022-12-18T01:54:59;101725.50;;;-1.75;96.15
73101;BME280;61288;53.446;-2.266;2022-12-18T01:57:26;101729.00;;;-1.71;94.69
73101;BME280;61288;53.446;-2.266;2022-12-18T01:59:57;101724.03;;;-1.67;94.04
73101;BME280;61288;53.446;-2.266;2022-12-18T02:02:26;101726.63;;;-1.65;94.33
73101;BME280;61288;53.446;-2.266;2022-12-18T02:04:53;101719.00;;;-1.65;93.69
73101;BME280;61288;53.446;-2.266;2022-12-18T02:07:40;101717.13;;;-1.71;94.12
73101;BME280;61288;53.446;-2.266;2022-12-18T02:12:48;101727.81;;;-1.83;95.21
73101;BME280;61288;53.446;-2.266;2022-12-18T02:15:24;101738.69;;;-1.89;94.92
73101;BME280;61288;53.446;-2.266;2022-12-18T02:17:58;101735.13;;;-1.95;95.79
73101;BME280;61288;53.446;-2.266;2022-12-18T02:20:35;101730.72;;;-2.01;96.06
73101;BME280;61288;53.446;-2.266;2022-12-18T02:28:19;101745.25;;;-1.97;95.01
73101;BME280;61288;53.446;-2.266;2022-12-18T02:30:49;101749.44;;;-1.99;95.40
73101;BME280;61288;53.446;-2.266;2022-12-18T02:33:19;101745.13;;;-2.00;95.37
73101;BME280;61288;53.446;-2.266;2022-12-18T02:35:47;101752.75;;;-2.01;95.25
73101;BME280;61288;53.446;-2.266;2022-12-18T02:38:15;101735.72;;;-2.04;95.03
73101;BME280;61288;53.446;-2.266;2022-12-18T02:40:42;101731.44;;;-2.05;95.27
73101;BME280;61288;53.446;-2.266;2022-12-18T02:43:11;101741.59;;;-2.07;94.85
73101;BME280;61288;53.446;-2.266;2022-12-18T02:45:58;101725.47;;;-2.07;95.23
73101;BME280;61288;53.446;-2.266;2022-12-18T02:48:29;101731.44;;;-2.07;94.90
73101;BME280;61288;53.446;-2.266;2022-12-18T02:53:37;101740.78;;;-2.04;94.23
73101;BME280;61288;53.446;-2.266;2022-12-18T02:56:20;101732.34;;;-2.03;94.07
73101;BME280;61288;53.446;-2.266;2022-12-18T03:01:27;101728.28;;;-1.98;92.71
73101;BME280;61288;53.446;-2.266;2022-12-18T03:04:04;101730.88;;;-1.96;93.47
73101;BME280;61288;53.446;-2.266;2022-12-18T03:06:47;101721.75;;;-1.90;93.60
73101;BME280;61288;53.446;-2.266;2022-12-18T03:09:22;101709.03;;;-1.90;93.22
73101;BME280;61288;53.446;-2.266;2022-12-18T03:11:56;101710.69;;;-1.90;93.44
73101;BME280;61288;53.446;-2.266;2022-12-18T03:14:43;101708.97;;;-1.91;93.64
73101;BME280;61288;53.446;-2.266;2022-12-18T03:17:17;101693.72;;;-1.93;93.55
73101;BME280;61288;53.446;-2.266;2022-12-18T03:19:46;101697.91;;;-1.95;93.99
73101;BME280;61288;53.446;-2.266;2022-12-18T03:22:13;101707.16;;;-1.97;94.70
73101;BME280;61288;53.446;-2.266;2022-12-18T03:24:41;101696.88;;;-2.00;94.08
73101;BME280;61288;53.446;-2.266;2022-12-18T03:27:12;101687.53;;;-2.03;94.59
73101;BME280;61288;53.446;-2.266;2022-12-18T03:29:45;101673.03;;;-2.05;94.58
73101;BME280;61288;53.446;-2.266;2022-12-18T03:32:21;101676.38;;;-2.08;95.05
73101;BME280;61288;53.446;-2.266;2022-12-18T03:34:51;101675.47;;;-2.10;95.28
73101;BME280;61288;53.446;-2.266;2022-12-18T03:37:20;101674.56;;;-2.12;95.06
73101;BME280;61288;53.446;-2.266;2022-12-18T03:39:45;101656.81;;;-2.12;95.07
73101;BME280;61288;53.446;-2.266;2022-12-18T03:45:02;101639.03;;;-2.10;95.29
73101;BME280;61288;53.446;-2.266;2022-12-18T03:50:15;101634.75;;;-2.13;95.81
73101;BME280;61288;53.446;-2.266;2022-12-18T03:53:06;101635.69;;;-2.09;95.92
73101;BME280;61288;53.446;-2.266;2022-12-18T03:55:35;101627.31;;;-2.07;95.32
73101;BME280;61288;53.446;-2.266;2022-12-18T03:58:03;101621.34;;;-2.07;95.96
73101;BME280;61288;53.446;-2.266;2022-12-18T04:00:32;101621.34;;;-2.07;95.98
73101;BME280;61288;53.446;-2.266;2022-12-18T04:03:00;101624.69;;;-2.10;96.44
73101;BME280;61288;53.446;-2.266;2022-12-18T04:05:28;101615.28;;;-2.12;96.36
73101;BME280;61288;53.446;-2.266;2022-12-18T04:07:56;101615.22;;;-2.15;96.00
73101;BME280;61288;53.446;-2.266;2022-12-18T04:10:22;101608.41;;;-2.16;96.44
73101;BME280;61288;53.446;-2.266;2022-12-18T04:12:48;101610.91;;;-2.18;96.27
73101;BME280;61288;53.446;-2.266;2022-12-18T04:15:14;101608.19;;;-2.24;96.53
73101;BME280;61288;53.446;-2.266;2022-12-18T04:17:46;101596.31;;;-2.27;96.66
73101;BME280;61288;53.446;-2.266;2022-12-18T04:20:12;101585.28;;;-2.27;97.29
73101;BME280;61288;53.446;-2.266;2022-12-18T04:22:37;101575.94;;;-2.28;97.10
73101;BME280;61288;53.446;-2.266;2022-12-18T04:25:03;101572.56;;;-2.29;97.16
73101;BME280;61288;53.446;-2.266;2022-12-18T04:27:29;101559.84;;;-2.29;96.97
73101;BME280;61288;53.446;-2.266;2022-12-18T04:29:56;101559.81;;;-2.30;96.54
73101;BME280;61288;53.446;-2.266;2022-12-18T04:32:22;101561.59;;;-2.26;96.40
73101;BME280;61288;53.446;-2.266;2022-12-18T04:34:48;101552.25;;;-2.27;96.26
73101;BME280;61288;53.446;-2.266;2022-12-18T04:37:14;101548.91;;;-2.26;96.53
73101;BME280;61288;53.446;-2.266;2022-12-18T04:39:40;101548.16;;;-2.22;96.30
73101;BME280;61288;53.446;-2.266;2022-12-18T04:42:06;101546.59;;;-2.17;95.28
73101;BME280;61288;53.446;-2.266;2022-12-18T04:44:44;101536.44;;;-2.17;95.40
73101;BME280;61288;53.446;-2.266;2022-12-18T04:47:11;101531.38;;;-2.17;96.15
73101;BME280;61288;53.446;-2.266;2022-12-18T04:49:38;101532.25;;;-2.16;95.89
73101;BME280;61288;53.446;-2.266;2022-12-18T04:52:06;101545.78;;;-2.16;95.84
73101;BME280;61288;53.446;-2.266;2022-12-18T04:54:33;101522.91;;;-2.18;96.38
73101;BME280;61288;53.446;-2.266;2022-12-18T04:57:00;101513.59;;;-2.17;96.56
73101;BME280;61288;53.446;-2.266;2022-12-18T04:59:25;101506.78;;;-2.18;96.22
73101;BME280;61288;53.446;-2.266;2022-12-18T05:01:51;101497.47;;;-2.19;96.68
73101;BME280;61288;53.446;-2.266;2022-12-18T05:04:16;101499.22;;;-2.16;95.95
73101;BME280;61288;53.446;-2.266;2022-12-18T05:06:42;101495.81;;;-2.17;96.40
73101;BME280;61288;53.446;-2.266;2022-12-18T05:09:07;101489.91;;;-2.18;96.36
73101;BME280;61288;53.446;-2.266;2022-12-18T05:11:33;101496.56;;;-2.21;96.86
73101;BME280;61288;53.446;-2.266;2022-12-18T05:13:59;101484.69;;;-2.22;96.82
73101;BME280;61288;53.446;-2.266;2022-12-18T05:16:24;101484.69;;;-2.22;96.78
73101;BME280;61288;53.446;-2.266;2022-12-18T05:18:50;101485.50;;;-2.23;96.72
73101;BME280;61288;53.446;-2.266;2022-12-18T05:21:16;101478.72;;;-2.24;96.71
73101;BME280;61288;53.446;-2.266;2022-12-18T05:23:41;101479.53;;;-2.25;97.70
73101;BME280;61288;53.446;-2.266;2022-12-18T05:26:08;101469.38;;;-2.27;97.34
73101;BME280;61288;53.446;-2.266;2022-12-18T05:28:35;101486.25;;;-2.27;97.53
73101;BME280;61288;53.446;-2.266;2022-12-18T05:33:36;101496.41;;;-2.27;97.49
73101;BME280;61288;53.446;-2.266;2022-12-18T05:36:04;101493.03;;;-2.28;98.07
73101;BME280;61288;53.446;-2.266;2022-12-18T05:38:32;101493.94;;;-2.26;97.11
73101;BME280;61288;53.446;-2.266;2022-12-18T05:40:58;101503.28;;;-2.23;97.35
73101;BME280;61288;53.446;-2.266;2022-12-18T05:43:25;101505.00;;;-2.22;96.63
73101;BME280;61288;53.446;-2.266;2022-12-18T05:45:52;101502.47;;;-2.22;97.04
73101;BME280;61288;53.446;-2.266;2022-12-18T05:48:19;101510.00;;;-2.25;97.07
73101;BME280;61288;53.446;-2.266;2022-12-18T05:50:46;101506.63;;;-2.24;97.01
73101;BME280;61288;53.446;-2.266;2022-12-18T05:53:13;101504.94;;;-2.25;97.29
73101;BME280;61288;53.446;-2.266;2022-12-18T05:55:41;101507.47;;;-2.25;97.04
73101;BME280;61288;53.446;-2.266;2022-12-18T05:58:09;101499.81;;;-2.27;97.24
73101;BME280;61288;53.446;-2.266;2022-12-18T06:00:37;101498.94;;;-2.27;97.40
73101;BME280;61288;53.446;-2.266;2022-12-18T06:03:10;101479.47;;;-2.28;97.64
73101;BME280;61288;53.446;-2.266;2022-12-18T06:05:39;101483.69;;;-2.29;97.56
73101;BME280;61288;53.446;-2.266;2022-12-18T06:08:06;101483.63;;;-2.32;97.58
73101;BME280;61288;53.446;-2.266;2022-12-18T06:10:32;101487.81;;;-2.33;97.06
73101;BME280;61288;53.446;-2.266;2022-12-18T06:12:58;101490.44;;;-2.29;97.07
73101;BME280;61288;53.446;-2.266;2022-12-18T06:15:23;101487.13;;;-2.27;97.33
73101;BME280;61288;53.446;-2.266;2022-12-18T06:17:50;101470.28;;;-2.23;96.77
73101;BME280;61288;53.446;-2.266;2022-12-18T06:20:15;101472.94;;;-2.19;97.22
73101;BME280;61288;53.446;-2.266;2022-12-18T06:22:41;101463.06;;;-2.06;96.43
73101;BME280;61288;53.446;-2.266;2022-12-18T06:25:07;101457.41;;;-1.96;96.26
73101;BME280;61288;53.446;-2.266;2022-12-18T06:27:33;101477.25;;;-1.79;95.75
73101;BME280;61288;53.446;-2.266;2022-12-18T06:30:00;101464.03;;;-1.64;95.88
73101;BME280;61288;53.446;-2.266;2022-12-18T06:32:26;101466.00;;;-1.52;95.17
73101;BME280;61288;53.446;-2.266;2022-12-18T06:34:52;101468.78;;;-1.40;95.16
73101;BME280;61288;53.446;-2.266;2022-12-18T06:37:20;101477.59;;;-1.24;93.93
73101;BME280;61288;53.446;-2.266;2022-12-18T06:39:50;101478.72;;;-1.11;93.46
73101;BME280;61288;53.446;-2.266;2022-12-18T06:42:16;101481.41;;;-1.03;93.08
73101;BME280;61288;53.446;-2.266;2022-12-18T06:44:41;101476.34;;;-1.02;92.78
73101;BME280;61288;53.446;-2.266;2022-12-18T06:47:07;101479.81;;;-0.98;92.64
73101;BME280;61288;53.446;-2.266;2022-12-18T06:49:32;101475.63;;;-0.96;92.38
73101;BME280;61288;53.446;-2.266;2022-12-18T06:51:57;101456.09;;;-0.97;92.53
73101;BME280;61288;53.446;-2.266;2022-12-18T06:54:23;101453.53;;;-0.98;93.31
73101;BME280;61288;53.446;-2.266;2022-12-18T06:56:48;101451.78;;;-1.01;93.14
73101;BME280;61288;53.446;-2.266;2022-12-18T06:59:14;101445.81;;;-1.03;93.26
73101;BME280;61288;53.446;-2.266;2022-12-18T07:01:40;101455.09;;;-1.05;93.48
73101;BME280;61288;53.446;-2.266;2022-12-18T07:04:05;101444.88;;;-1.07;93.69
73101;BME280;61288;53.446;-2.266;2022-12-18T07:06:31;101439.78;;;-1.07;93.56
73101;BME280;61288;53.446;-2.266;2022-12-18T07:08:56;101424.59;;;-1.04;92.93
73101;BME280;61288;53.446;-2.266;2022-12-18T07:11:23;101430.59;;;-1.00;91.83
73101;BME280;61288;53.446;-2.266;2022-12-18T07:13:49;101428.06;;;-1.00;92.67
73101;BME280;61288;53.446;-2.266;2022-12-18T07:16:17;101428.06;;;-1.00;92.43
73101;BME280;61288;53.446;-2.266;2022-12-18T07:18:43;101428.88;;;-1.01;92.21
73101;BME280;61288;53.446;-2.266;2022-12-18T07:21:11;101416.16;;;-1.01;92.64
73101;BME280;61288;53.446;-2.266;2022-12-18T07:23:38;101414.47;;;-1.00;92.34
73101;BME280;61288;53.446;-2.266;2022-12-18T07:26:06;101414.47;;;-1.00;92.40
73101;BME280;61288;53.446;-2.266;2022-12-18T07:28:33;101407.69;;;-1.00;93.04
73101;BME280;61288;53.446;-2.266;2022-12-18T07:31:05;101415.38;;;-0.98;91.81
73101;BME280;61288;53.446;-2.266;2022-12-18T07:33:31;101405.16;;;-1.00;92.29
73101;BME280;61288;53.446;-2.266;2022-12-18T07:35:58;101404.28;;;-1.00;92.22
73101;BME280;61288;53.446;-2.266;2022-12-18T07:38:24;101412.69;;;-1.05;92.89
73101;BME280;61288;53.446;-2.266;2022-12-18T07:40:50;101408.47;;;-1.04;93.08
73101;BME280;61288;53.446;-2.266;2022-12-18T07:43:15;101413.69;;;-0.98;91.48
73101;BME280;61288;53.446;-2.266;2022-12-18T07:45:42;101408.75;;;-0.89;91.15
73101;BME280;61288;53.446;-2.266;2022-12-18T07:48:08;101409.78;;;-0.79;89.87
73101;BME280;61288;53.446;-2.266;2022-12-18T07:50:34;101415.03;;;-0.69;89.26
73101;BME280;61288;53.446;-2.266;2022-12-18T07:52:59;101424.50;;;-0.61;88.58
73101;BME280;61288;53.446;-2.266;2022-12-18T07:55:29;101425.44;;;-0.55;88.82
73101;BME280;61288;53.446;-2.266;2022-12-18T07:57:55;101418.72;;;-0.52;88.75
73101;BME280;61288;53.446;-2.266;2022-12-18T08:00:21;101411.09;;;-0.50;88.57
73101;BME280;61288;53.446;-2.266;2022-12-18T08:02:46;101405.22;;;-0.49;88.87
73101;BME280;61288;53.446;-2.266;2022-12-18T08:05:12;101395.06;;;-0.45;87.39
73101;BME280;61288;53.446;-2.266;2022-12-18T08:07:39;101396.78;;;-0.44;87.57
73101;BME280;61288;53.446;-2.266;2022-12-18T08:10:05;101405.31;;;-0.41;86.94
73101;BME280;61288;53.446;-2.266;2022-12-18T08:12:31;101409.53;;;-0.44;87.56
73101;BME280;61288;53.446;-2.266;2022-12-18T08:14:57;101406.13;;;-0.44;87.69
73101;BME280;61288;53.446;-2.266;2022-12-18T08:17:23;101413.78;;;-0.44;87.06
73101;BME280;61288;53.446;-2.266;2022-12-18T08:19:49;101418.81;;;-0.46;87.05
73101;BME280;61288;53.446;-2.266;2022-12-18T08:22:14;101412.13;;;-0.40;85.04
73101;BME280;61288;53.446;-2.266;2022-12-18T08:24:40;101413.97;;;-0.33;84.82
73101;BME280;61288;53.446;-2.266;2022-12-18T08:27:05;101400.38;;;-0.32;84.72
73101;BME280;61288;53.446;-2.266;2022-12-18T08:29:31;101407.16;;;-0.33;85.03
73101;BME280;61288;53.446;-2.266;2022-12-18T08:31:58;101408.91;;;-0.30;83.95
73101;BME280;61288;53.446;-2.266;2022-12-18T08:34:23;101402.16;;;-0.28;84.47
73101;BME280;61288;53.446;-2.266;2022-12-18T08:36:49;101401.28;;;-0.30;84.38
73101;BME280;61288;53.446;-2.266;2022-12-18T08:39:14;101396.13;;;-0.32;84.99
73101;BME280;61288;53.446;-2.266;2022-12-18T08:41:40;101395.25;;;-0.34;85.00
73101;BME280;61288;53.446;-2.266;2022-12-18T08:44:07;101395.25;;;-0.34;85.52
73101;BME280;61288;53.446;-2.266;2022-12-18T08:46:52;101389.38;;;-0.31;83.94
73101;BME280;61288;53.446;-2.266;2022-12-18T08:49:17;101373.22;;;-0.33;84.34
73101;BME280;61288;53.446;-2.266;2022-12-18T08:51:43;101369.78;;;-0.34;84.28
73101;BME280;61288;53.446;-2.266;2022-12-18T08:54:11;101358.69;;;-0.37;85.42
73101;BME280;61288;53.446;-2.266;2022-12-18T08:56:37;101352.84;;;-0.33;83.86
73101;BME280;61288;53.446;-2.266;2022-12-18T08:59:03;101332.38;;;-0.36;84.91
73101;BME280;61288;53.446;-2.266;2022-12-18T09:01:29;101323.06;;;-0.36;84.47
73101;BME280;61288;53.446;-2.266;2022-12-18T09:03:55;101321.38;;;-0.37;85.08
73101;BME280;61288;53.446;-2.266;2022-12-18T09:06:22;101322.19;;;-0.36;85.13
73101;BME280;61288;53.446;-2.266;2022-12-18T09:08:48;101313.72;;;-0.35;84.78
73101;BME280;61288;53.446;-2.266;2022-12-18T09:11:26;101303.59;;;-0.34;84.70
73101;BME280;61288;53.446;-2.266;2022-12-18T09:13:53;101299.38;;;-0.32;84.83
73101;BME280;61288;53.446;-2.266;2022-12-18T09:16:19;101294.28;;;-0.32;84.52
73101;BME280;61288;53.446;-2.266;2022-12-18T09:18:46;101293.47;;;-0.29;84.68
73101;BME280;61288;53.446;-2.266;2022-12-18T09:21:14;101295.97;;;-0.31;84.89
73101;BME280;61288;53.446;-2.266;2022-12-18T09:23:40;101287.47;;;-0.33;86.01
73101;BME280;61288;53.446;-2.266;2022-12-18T09:26:06;101277.28;;;-0.33;86.07
73101;BME280;61288;53.446;-2.266;2022-12-18T09:28:35;101252.69;;;-0.32;86.20
73101;BME280;61288;53.446;-2.266;2022-12-18T09:31:07;101242.50;;;-0.32;85.84
73101;BME280;61288;53.446;-2.266;2022-12-18T09:33:35;101247.59;;;-0.32;85.62
73101;BME280;61288;53.446;-2.266;2022-12-18T09:36:04;101237.41;;;-0.32;85.81
73101;BME280;61288;53.446;-2.266;2022-12-18T09:38:30;101228.91;;;-0.33;85.64
73101;BME280;61288;53.446;-2.266;2022-12-18T09:41:00;101226.31;;;-0.34;85.66
73101;BME280;61288;53.446;-2.266;2022-12-18T09:43:37;101210.19;;;-0.35;85.42
73101;BME280;61288;53.446;-2.266;2022-12-18T09:46:16;101211.03;;;-0.34;84.63
73101;BME280;61288;53.446;-2.266;2022-12-18T09:48:44;101205.13;;;-0.33;85.65
73101;BME280;61288;53.446;-2.266;2022-12-18T09:51:26;101197.50;;;-0.32;86.22
73101;BME280;61288;53.446;-2.266;2022-12-18T09:53:57;101189.06;;;-0.27;84.83
73101;BME280;61288;53.446;-2.266;2022-12-18T09:56:35;101195.91;;;-0.25;84.46
73101;BME280;61288;53.446;-2.266;2022-12-18T09:59:03;101195.09;;;-0.19;84.05
73101;BME280;61288;53.446;-2.266;2022-12-18T10:01:31;101191.75;;;-0.17;83.80
73101;BME280;61288;53.446;-2.266;2022-12-18T10:03:57;101188.41;;;-0.11;82.21
73101;BME280;61288;53.446;-2.266;2022-12-18T10:06:49;101191.88;;;-0.06;82.80
73101;BME280;61288;53.446;-2.266;2022-12-18T10:17:18;101177.44;;;-0.02;84.54
73101;BME280;61288;53.446;-2.266;2022-12-18T10:20:03;101173.28;;;0.03;84.20
73101;BME280;61288;53.446;-2.266;2022-12-18T10:27:42;101161.38;;;0.04;84.80
73101;BME280;61288;53.446;-2.266;2022-12-18T10:30:14;101148.69;;;0.10;83.30
73101;BME280;61288;53.446;-2.266;2022-12-18T10:32:40;101150.50;;;0.17;82.44
73101;BME280;61288;53.446;-2.266;2022-12-18T10:35:34;101143.75;;;0.22;82.87
73101;BME280;61288;53.446;-2.266;2022-12-18T10:38:26;101143.78;;;0.27;81.69
73101;BME280;61288;53.446;-2.266;2022-12-18T10:40:59;101143.78;;;0.28;83.51
73101;BME280;61288;53.446;-2.266;2022-12-18T10:46:16;101131.97;;;0.37;82.29
73101;BME280;61288;53.446;-2.266;2022-12-18T10:51:32;101130.28;;;0.37;83.37
73101;BME280;61288;53.446;-2.266;2022-12-18T10:54:22;101118.41;;;0.39;83.91
73101;BME280;61288;53.446;-2.266;2022-12-18T10:56:49;101113.31;;;0.39;84.27
73101;BME280;61288;53.446;-2.266;2022-12-18T10:59:16;101104.81;;;0.42;83.58
73101;BME280;61288;53.446;-2.266;2022-12-18T11:04:23;101090.44;;;0.49;83.57
73101;BME280;61288;53.446;-2.266;2022-12-18T11:09:24;101079.44;;;0.54;84.02
73101;BME280;61288;53.446;-2.266;2022-12-18T11:11:51;101073.47;;;0.55;84.29
73101;BME280;61288;53.446;-2.266;2022-12-18T11:14:32;101060.75;;;0.59;84.61
73101;BME280;61288;53.446;-2.266;2022-12-18T11:17:00;101057.34;;;0.56;84.65
73101;BME280;61288;53.446;-2.266;2022-12-18T11:19:35;101050.56;;;0.59;84.47
73101;BME280;61288;53.446;-2.266;2022-12-18T11:22:16;101034.38;;;0.56;85.42
73101;BME280;61288;53.446;-2.266;2022-12-18T11:24:56;101030.13;;;0.57;85.29
73101;BME280;61288;53.446;-2.266;2022-12-18T11:27:23;101026.72;;;0.56;85.65
73101;BME280;61288;53.446;-2.266;2022-12-18T11:29:50;101021.63;;;0.56;85.35
73101;BME280;61288;53.446;-2.266;2022-12-18T11:32:39;101017.34;;;0.54;86.00
73101;BME280;61288;53.446;-2.266;2022-12-18T11:35:25;101013.97;;;0.53;86.17
73101;BME280;61288;53.446;-2.266;2022-12-18T11:37:58;101019.06;;;0.53;86.04
73101;BME280;61288;53.446;-2.266;2022-12-18T11:40:31;101008.88;;;0.55;86.03
73101;BME280;61288;53.446;-2.266;2022-12-18T11:45:31;100987.63;;;0.54;86.93
73101;BME280;61288;53.446;-2.266;2022-12-18T11:48:21;100971.47;;;0.54;87.19
73101;BME280;61288;53.446;-2.266;2022-12-18T11:50:53;100959.56;;;0.53;88.13
73101;BME280;61288;53.446;-2.266;2022-12-18T11:53:20;100951.06;;;0.54;87.87
73101;BME280;61288;53.446;-2.266;2022-12-18T11:58:47;100954.50;;;0.57;87.42
73101;BME280;61288;53.446;-2.266;2022-12-18T12:07:37;100923.94;;;0.70;86.81
73101;BME280;61288;53.446;-2.266;2022-12-18T12:18:05;100881.50;;;1.02;84.97
73101;BME280;61288;53.446;-2.266;2022-12-18T12:20:49;100884.06;;;1.03;85.76
73101;BME280;61288;53.446;-2.266;2022-12-18T12:26:04;100856.00;;;1.09;84.49
73101;BME280;61288;53.446;-2.266;2022-12-18T12:28:52;100850.88;;;1.09;85.55
73101;BME280;61288;53.446;-2.266;2022-12-18T12:31:56;100842.38;;;1.09;85.57
73101;BME280;61288;53.446;-2.266;2022-12-18T12:34:26;100844.09;;;1.07;86.35
73101;BME280;61288;53.446;-2.266;2022-12-18T12:37:05;100846.66;;;1.07;86.72
73101;BME280;61288;53.446;-2.266;2022-12-18T12:39:36;100847.50;;;1.06;86.61
73101;BME280;61288;53.446;-2.266;2022-12-18T12:42:05;100839.84;;;1.06;87.09
73101;BME280;61288;53.446;-2.266;2022-12-18T12:44:55;100836.44;;;1.04;88.27
73101;BME280;61288;53.446;-2.266;2022-12-18T12:47:27;100832.16;;;1.01;88.88
73101;BME280;61288;53.446;-2.266;2022-12-18T12:49:58;100835.56;;;0.98;89.32
73101;BME280;61288;53.446;-2.266;2022-12-18T12:52:34;100822.81;;;0.94;89.89
73101;BME280;61288;53.446;-2.266;2022-12-18T12:55:05;100817.69;;;0.92;89.96
73101;BME280;61288;53.446;-2.266;2022-12-18T12:57:43;100816.84;;;0.90;91.02
73101;BME280;61288;53.446;-2.266;2022-12-18T13:00:17;100804.09;;;0.89;92.06
73101;BME280;61288;53.446;-2.266;2022-12-18T13:02:59;100798.97;;;0.87;92.87
73101;BME280;61288;53.446;-2.266;2022-12-18T13:05:38;100779.44;;;0.88;92.58
73101;BME280;61288;53.446;-2.266;2022-12-18T13:08:08;100791.31;;;0.87;93.50
73101;BME280;61288;53.446;-2.266;2022-12-18T13:10:41;100793.88;;;0.85;94.44
73101;BME280;61288;53.446;-2.266;2022-12-18T13:13:10;100792.19;;;0.84;94.43
73101;BME280;61288;53.446;-2.266;2022-12-18T13:16:03;100783.66;;;0.84;95.25
73101;BME280;61288;53.446;-2.266;2022-12-18T13:18:30;100775.16;;;0.85;96.39
73101;BME280;61288;53.446;-2.266;2022-12-18T13:21:11;100767.53;;;0.86;94.90
73101;BME280;61288;53.446;-2.266;2022-12-18T13:23:41;100764.13;;;0.88;95.68
73101;BME280;61288;53.446;-2.266;2022-12-18T13:36:35;100720.75;;;0.94;94.20
73101;BME280;61288;53.446;-2.266;2022-12-18T13:41:40;100700.34;;;0.97;93.81
73101;BME280;61288;53.446;-2.266;2022-12-18T13:44:25;100696.94;;;0.99;93.39
73101;BME280;61288;53.446;-2.266;2022-12-18T13:46:51;100688.44;;;1.00;93.78
73101;BME280;61288;53.446;-2.266;2022-12-18T13:51:54;100674.81;;;1.08;93.36
73101;BME280;61288;53.446;-2.266;2022-12-18T13:54:34;100665.44;;;1.10;93.94
73101;BME280;61288;53.446;-2.266;2022-12-18T13:57:01;100661.19;;;1.10;94.37
73101;BME280;61288;53.446;-2.266;2022-12-18T13:59:38;100656.09;;;1.09;95.20
73101;BME280;61288;53.446;-2.266;2022-12-18T14:02:15;100660.31;;;1.08;95.18
73101;BME280;61288;53.446;-2.266;2022-12-18T14:04:45;100656.94;;;1.08;95.51
73101;BME280;61288;53.446;-2.266;2022-12-18T14:07:28;100656.09;;;1.12;95.30
73101;BME280;61288;53.446;-2.266;2022-12-18T14:09:59;100659.50;;;1.11;96.04
73101;BME280;61288;53.446;-2.266;2022-12-18T14:12:36;100650.97;;;1.10;96.72
73101;BME280;61288;53.446;-2.266;2022-12-18T14:20:51;100633.13;;;1.04;98.58
73101;BME280;61288;53.446;-2.266;2022-12-18T14:25:53;100622.09;;;1.00;99.17
73101;BME280;61288;53.446;-2.266;2022-12-18T14:28:19;100611.88;;;0.99;99.29
73101;BME280;61288;53.446;-2.266;2022-12-18T14:30:45;100593.16;;;0.97;99.56
73101;BME280;61288;53.446;-2.266;2022-12-18T14:35:51;100589.78;;;0.99;100.00